Time;durP1;ratioP1;P1;durP2;ratioP2;P2;SDS_P1;SDS_P2;PMS_P1;PMS_P2;Temp;Humidity;BMP_temperature;BMP_pressure;BME280_temperature;BME280_humidity;BME280_pressure;Samples;Min_cycle;Max_cycle;Signal;HPM_P1;HPM_P2
2022/12/21 00:01:45;;;;;;;18.75;11.07;;;12.30;99.90;;;;;;5056019;28;20210;-84
2022/12/21 00:04:11;;;;;;;18.77;10.68;;;12.20;99.90;;;;;;5055210;28;20167;-85
2022/12/21 00:06:38;;;;;;;12.55;10.05;;;12.20;99.90;;;;;;5053834;28;20175;-85
2022/12/21 00:09:33;;;;;;;12.82;9.77;;;12.10;99.90;;;;;;5054001;28;20167;-90
2022/12/21 00:12:01;;;;;;;15.60;10.73;;;12.20;99.90;;;;;;5049786;28;20242;-85
2022/12/21 00:14:27;;;;;;;17.13;11.15;;;12.20;99.90;;;;;;5053931;28;20536;-86
2022/12/21 00:21:27;;;;;;;16.63;10.32;;;12.30;99.90;;;;;;4991877;28;20226;-85
2022/12/21 00:24:00;;;;;;;11.73;8.52;;;12.40;99.90;;;;;;4977703;28;20205;-85
2022/12/21 00:26:46;;;;;;;10.57;8.60;;;12.70;99.90;;;;;;4973589;28;20189;-85
2022/12/21 00:29:12;;;;;;;10.98;9.13;;;12.50;99.90;;;;;;5051961;28;20241;-85
2022/12/21 00:31:41;;;;;;;11.30;8.75;;;12.50;99.90;;;;;;5053541;28;20179;-85
2022/12/21 00:34:07;;;;;;;18.05;8.32;;;12.40;99.90;;;;;;5051990;28;20166;-85
2022/12/21 00:36:33;;;;;;;12.25;8.32;;;12.40;99.90;;;;;;5051661;28;20214;-84
2022/12/21 00:39:14;;;;;;;15.70;8.15;;;12.40;99.90;;;;;;5054260;28;20167;-85
2022/12/21 00:41:39;;;;;;;11.60;8.15;;;12.40;99.90;;;;;;5046086;28;20348;-84
2022/12/21 00:44:54;;;;;;;9.05;7.85;;;12.20;99.90;;;;;;5053259;28;20246;-84
2022/12/21 00:48:13;;;;;;;12.63;7.03;;;12.30;99.90;;;;;;4993673;28;20180;-83
2022/12/21 00:58:25;;;;;;;11.05;7.88;;;12.50;99.90;;;;;;5009945;28;20300;-84
2022/12/21 01:01:18;;;;;;;15.60;7.40;;;12.50;99.90;;;;;;4994512;28;20184;-84
2022/12/21 01:03:44;;;;;;;12.20;7.13;;;12.60;99.90;;;;;;5010056;28;20168;-85
2022/12/21 01:06:24;;;;;;;10.65;7.90;;;12.40;99.90;;;;;;5047829;28;20667;-86
2022/12/21 01:08:54;;;;;;;13.15;8.93;;;12.20;99.90;;;;;;5052335;28;20175;-86
2022/12/21 01:11:24;;;;;;;12.82;8.10;;;12.10;99.90;;;;;;5051134;28;20191;-85
2022/12/21 01:13:50;;;;;;;13.95;8.30;;;12.30;99.90;;;;;;5052666;28;20650;-85
2022/12/21 01:16:53;;;;;;;14.48;8.50;;;12.30;99.90;;;;;;5052588;28;20206;-84
2022/12/21 01:19:43;;;;;;;11.05;7.68;;;12.30;99.90;;;;;;5026447;28;20236;-84
2022/12/21 01:23:08;;;;;;;11.57;8.18;;;12.20;99.90;;;;;;5051651;28;20647;-85
2022/12/21 01:26:08;;;;;;;8.63;7.63;;;12.10;99.90;;;;;;5033568;28;20175;-83
2022/12/21 01:28:57;;;;;;;16.70;8.15;;;12.10;99.90;;;;;;5035092;28;20603;-85
2022/12/21 01:32:38;;;;;;;9.70;8.68;;;11.90;99.90;;;;;;5051643;28;20181;-84
2022/12/21 01:35:20;;;;;;;12.75;8.32;;;11.90;99.90;;;;;;5049333;28;20620;-86
2022/12/21 01:38:12;;;;;;;12.73;8.52;;;11.80;99.90;;;;;;5052450;28;20171;-84
2022/12/21 01:58:13;;;;;;;25.15;11.25;;;12.00;99.90;;;;;;4919811;29;20199;-85
2022/12/21 02:04:50;;;;;;;;;;;;;;;;;;;;;
2022/12/21 02:10:34;;;;;;;12.63;9.32;;;11.60;99.90;;;;;;4988376;28;20247;-84
2022/12/21 02:13:32;;;;;;;;;;;;;;;;;;;;;
2022/12/21 02:15:58;;;;;;;8.73;7.82;;;11.40;99.90;;;;;;4990183;28;20723;-86
2022/12/21 02:18:45;;;;;;;10.27;8.10;;;11.40;99.90;;;;;;4990810;28;20248;-86
2022/12/21 02:21:20;;;;;;;12.18;8.48;;;11.20;99.90;;;;;;5024595;28;20585;-86
2022/12/21 02:24:04;;;;;;;13.00;8.73;;;11.10;99.90;;;;;;5051817;28;20167;-86
2022/12/21 02:27:20;;;;;;;11.23;9.20;;;11.10;99.90;;;;;;5051786;28;20655;-85
2022/12/21 02:30:07;;;;;;;10.40;8.35;;;11.10;99.90;;;;;;5050208;28;20167;-87
2022/12/21 02:33:10;;;;;;;15.82;8.32;;;11.10;99.90;;;;;;5053061;28;20187;-86
2022/12/21 02:35:54;;;;;;;18.10;8.50;;;10.90;99.90;;;;;;5055719;28;20214;-84
2022/12/21 02:38:41;;;;;;;14.23;7.78;;;11.00;99.90;;;;;;5054395;28;20171;-85
2022/12/21 02:41:47;;;;;;;11.77;8.80;;;11.10;99.90;;;;;;5054300;28;20167;-86
2022/12/21 02:44:42;;;;;;;9.23;7.90;;;11.30;99.90;;;;;;5055706;28;20642;-86
2022/12/21 02:47:27;;;;;;;10.15;8.98;;;11.40;99.90;;;;;;5055171;28;20191;-86
2022/12/21 02:50:11;;;;;;;16.20;9.00;;;11.30;99.90;;;;;;5055507;28;20361;-86
2022/12/21 02:52:57;;;;;;;13.90;8.93;;;11.30;99.90;;;;;;5055261;28;20266;-87
2022/12/21 02:55:26;;;;;;;17.35;8.68;;;11.00;99.90;;;;;;5053959;28;20211;-85
2022/12/21 02:58:21;;;;;;;16.95;10.25;;;11.10;99.90;;;;;;5055223;28;20225;-86
2022/12/21 03:00:49;;;;;;;12.95;9.18;;;11.10;99.90;;;;;;5053862;28;20171;-85
2022/12/21 03:03:47;;;;;;;14.90;9.82;;;11.20;99.90;;;;;;5055284;28;20207;-85
2022/12/21 03:06:22;;;;;;;18.38;9.25;;;11.30;99.90;;;;;;5055345;28;20167;-85
2022/12/21 03:09:03;;;;;;;16.02;9.88;;;11.50;99.90;;;;;;5054720;28;20204;-85
2022/12/21 03:12:01;;;;;;;15.05;10.20;;;11.70;99.90;;;;;;5054405;28;20171;-85
2022/12/21 03:14:27;;;;;;;13.63;9.15;;;11.60;99.90;;;;;;5049581;28;20186;-87
2022/12/21 03:16:59;;;;;;;11.02;9.02;;;11.50;99.90;;;;;;5055180;28;20206;-85
2022/12/21 03:19:52;;;;;;;10.57;8.63;;;11.60;99.90;;;;;;5054721;28;20159;-85
2022/12/21 03:22:29;;;;;;;11.88;8.63;;;11.50;99.90;;;;;;5054685;28;20245;-85
2022/12/21 03:25:06;;;;;;;11.73;8.30;;;11.70;99.90;;;;;;5054762;28;20170;-85
2022/12/21 03:27:41;;;;;;;11.43;8.02;;;11.50;99.90;;;;;;5054945;28;20164;-85
2022/12/21 03:30:22;;;;;;;13.85;6.80;;;11.50;99.90;;;;;;5054817;28;20611;-85
2022/12/21 03:33:17;;;;;;;;;;;;;;;;;;;;;
2022/12/21 03:40:06;;;;;;;8.38;6.18;;;11.50;99.90;;;;;;5011904;28;20180;-84
2022/12/21 03:42:47;;;;;;;7.63;5.97;;;11.60;99.90;;;;;;5014846;28;20680;-85
2022/12/21 03:45:24;;;;;;;11.32;7.13;;;11.70;99.90;;;;;;5053942;28;20175;-86
2022/12/21 03:48:05;;;;;;;9.77;6.80;;;11.90;99.90;;;;;;5054224;28;20954;-86
2022/12/21 03:50:35;;;;;;;11.45;6.85;;;11.80;99.90;;;;;;5053829;28;20558;-86
2022/12/21 03:53:24;;;;;;;12.85;7.57;;;11.70;99.90;;;;;;5054150;28;20216;-85
2022/12/21 03:56:09;;;;;;;7.68;6.63;;;11.80;99.90;;;;;;5054012;28;20668;-86
2022/12/21 03:58:36;;;;;;;14.40;6.95;;;11.60;99.90;;;;;;5054159;28;20171;-85
2022/12/21 04:01:13;;;;;;;15.85;6.97;;;11.60;99.90;;;;;;5054275;28;20571;-85
2022/12/21 04:03:42;;;;;;;9.07;5.93;;;11.60;99.90;;;;;;5053823;28;20521;-85
2022/12/21 04:06:14;;;;;;;10.48;6.78;;;11.60;99.90;;;;;;5053769;28;20625;-86
2022/12/21 04:08:40;;;;;;;9.80;6.88;;;11.60;99.90;;;;;;5053926;28;20167;-85
2022/12/21 04:11:06;;;;;;;11.20;7.18;;;11.60;99.90;;;;;;5054083;28;20682;-85
2022/12/21 04:14:02;;;;;;;7.15;6.45;;;11.70;99.90;;;;;;5053808;28;20175;-85
2022/12/21 04:16:56;;;;;;;6.93;5.93;;;11.60;99.90;;;;;;5053366;28;20659;-84
2022/12/21 04:28:43;;;;;;;8.68;5.68;;;11.60;99.90;;;;;;5052334;28;20685;-85
2022/12/21 04:31:09;;;;;;;8.07;5.65;;;11.60;99.90;;;;;;5053614;28;20195;-85
2022/12/21 04:33:35;;;;;;;7.00;5.75;;;11.80;99.90;;;;;;5053227;28;20222;-84
2022/12/21 04:38:45;;;;;;;7.30;5.35;;;11.90;99.90;;;;;;5052660;28;20186;-86
2022/12/21 04:41:11;;;;;;;8.82;4.68;;;11.70;99.90;;;;;;5052941;28;20171;-85
2022/12/21 04:43:38;;;;;;;20.15;6.22;;;11.90;99.90;;;;;;5053344;28;20174;-85
2022/12/21 04:46:29;;;;;;;5.82;4.35;;;11.80;99.90;;;;;;5053311;28;20171;-84
2022/12/21 04:49:07;;;;;;;11.45;5.38;;;11.80;99.90;;;;;;5053042;28;20179;-84
2022/12/21 04:51:38;;;;;;;8.82;5.28;;;11.70;99.90;;;;;;5052669;28;20764;-86
2022/12/21 04:54:05;;;;;;;7.00;4.22;;;11.50;99.90;;;;;;5053020;28;20604;-85
2022/12/21 04:56:39;;;;;;;11.25;4.80;;;11.50;99.90;;;;;;5051117;28;20269;-84
2022/12/21 05:01:55;;;;;;;13.75;5.15;;;11.60;99.90;;;;;;5053174;28;20248;-86
2022/12/21 05:04:21;;;;;;;8.48;4.97;;;11.50;99.90;;;;;;5050989;28;20170;-85
2022/12/21 05:06:47;;;;;;;8.27;4.13;;;11.60;99.90;;;;;;5052887;28;20175;-87
2022/12/21 05:09:13;;;;;;;9.30;4.95;;;11.50;99.90;;;;;;5051232;28;20241;-84
2022/12/21 05:11:39;;;;;;;6.57;3.95;;;11.40;99.90;;;;;;5052788;28;20248;-86
2022/12/21 05:14:05;;;;;;;11.02;4.18;;;11.60;99.90;;;;;;5052817;28;20527;-85
2022/12/21 05:16:46;;;;;;;8.55;5.47;;;11.60;99.90;;;;;;5052621;28;20781;-86
2022/12/21 05:19:17;;;;;;;11.27;6.88;;;11.50;99.90;;;;;;5051994;28;20159;-86
2022/12/21 05:21:46;;;;;;;18.15;7.97;;;11.70;99.90;;;;;;5051446;28;20544;-84
2022/12/21 05:24:33;;;;;;;8.77;5.97;;;11.70;99.90;;;;;;5052636;28;20245;-89
2022/12/21 05:26:58;;;;;;;9.85;5.72;;;11.60;99.90;;;;;;5052552;28;20171;-85
2022/12/21 05:29:24;;;;;;;9.32;5.88;;;11.60;99.90;;;;;;5052632;28;20662;-86
2022/12/21 05:31:50;;;;;;;8.32;6.50;;;11.40;99.90;;;;;;5052507;28;20556;-85
2022/12/21 05:34:15;;;;;;;17.00;7.93;;;11.40;99.90;;;;;;5052537;28;20167;-86
2022/12/21 05:36:41;;;;;;;9.60;6.88;;;11.40;99.90;;;;;;5052276;28;20203;-87
2022/12/21 05:39:12;;;;;;;10.88;5.63;;;11.30;99.90;;;;;;5052339;28;20165;-85
2022/12/21 05:41:38;;;;;;;9.57;5.53;;;11.40;99.90;;;;;;5050865;28;20282;-85
2022/12/21 05:44:04;;;;;;;10.68;5.72;;;11.00;99.90;;;;;;5052471;28;20600;-86
2022/12/21 05:46:30;;;;;;;9.52;5.63;;;11.00;99.90;;;;;;5051330;28;20236;-84
2022/12/21 05:49:00;;;;;;;16.88;6.30;;;11.00;99.90;;;;;;5053335;28;20167;-83
2022/12/21 05:51:33;;;;;;;10.50;6.07;;;11.20;99.90;;;;;;5055192;28;20242;-82
2022/12/21 05:54:08;;;;;;;13.38;5.75;;;11.10;99.90;;;;;;5056406;28;20183;-85
2022/12/21 05:56:36;;;;;;;11.57;5.72;;;11.10;99.90;;;;;;5053092;28;20221;-86
2022/12/21 05:59:01;;;;;;;12.57;5.45;;;11.10;99.90;;;;;;5058071;28;20166;-85
2022/12/21 06:01:27;;;;;;;14.27;5.80;;;11.00;99.90;;;;;;5057308;28;20651;-85
2022/12/21 06:03:56;;;;;;;13.48;6.70;;;11.10;99.90;;;;;;5054875;28;20167;-83
2022/12/21 06:06:21;;;;;;;14.65;6.00;;;11.10;99.90;;;;;;5059895;28;20257;-80
2022/12/21 06:08:47;;;;;;;15.52;7.47;;;11.20;99.90;;;;;;5061703;28;20217;-80
2022/12/21 06:11:15;;;;;;;12.63;6.40;;;11.10;99.90;;;;;;5062418;28;20181;-79
2022/12/21 06:13:42;;;;;;;11.88;6.53;;;11.10;99.90;;;;;;5066111;28;20194;-78
2022/12/21 06:16:13;;;;;;;11.68;6.78;;;11.20;99.90;;;;;;5065437;28;20217;-80
2022/12/21 06:18:40;;;;;;;10.32;6.85;;;11.20;99.90;;;;;;5064400;28;20663;-81
2022/12/21 06:21:07;;;;;;;17.73;8.07;;;11.20;99.90;;;;;;5063825;28;20221;-79
2022/12/21 06:23:32;;;;;;;16.17;7.63;;;10.90;99.90;;;;;;5064393;28;20574;-80
2022/12/21 06:26:00;;;;;;;13.40;7.20;;;10.90;99.90;;;;;;5065117;28;20167;-80
2022/12/21 06:28:27;;;;;;;12.27;6.55;;;10.90;99.90;;;;;;5068946;28;20163;-80
2022/12/21 06:31:03;;;;;;;14.82;7.40;;;10.80;99.90;;;;;;5064760;28;20178;-79
2022/12/21 06:33:29;;;;;;;14.32;6.95;;;10.90;99.90;;;;;;5055888;28;20190;-79
2022/12/21 06:35:55;;;;;;;15.27;7.25;;;10.80;99.90;;;;;;5055775;28;20210;-80
2022/12/21 06:38:22;;;;;;;11.00;6.45;;;10.70;99.90;;;;;;5055642;28;21014;-80
2022/12/21 06:40:59;;;;;;;15.02;6.88;;;10.80;99.90;;;;;;5055264;28;20207;-79
2022/12/21 06:43:26;;;;;;;20.33;7.53;;;10.60;99.90;;;;;;5053830;28;20581;-80
2022/12/21 06:46:01;;;;;;;13.55;7.88;;;10.70;99.90;;;;;;5055577;28;20259;-79
2022/12/21 06:48:27;;;;;;;14.98;6.90;;;10.70;99.90;;;;;;5054996;28;20167;-80
2022/12/21 06:50:59;;;;;;;14.65;7.10;;;10.60;99.90;;;;;;5055680;28;20170;-79
2022/12/21 06:53:27;;;;;;;11.85;7.47;;;10.60;99.90;;;;;;5054828;28;20278;-82
2022/12/21 06:56:06;;;;;;;16.38;7.88;;;10.60;99.90;;;;;;5053521;28;20898;-79
2022/12/21 06:58:33;;;;;;;16.20;7.95;;;10.20;99.90;;;;;;5055243;28;20503;-82
2022/12/21 07:01:14;;;;;;;26.20;8.45;;;10.20;99.90;;;;;;5054116;28;20576;-80
2022/12/21 07:03:41;;;;;;;19.45;8.30;;;10.20;99.90;;;;;;5054848;28;20655;-81
2022/12/21 07:06:07;;;;;;;14.98;8.32;;;10.30;99.90;;;;;;5054906;28;20177;-80
2022/12/21 07:08:33;;;;;;;20.67;8.45;;;10.50;99.90;;;;;;5055265;28;20162;-80
2022/12/21 07:11:04;;;;;;;19.42;9.25;;;10.30;99.90;;;;;;5054944;28;20159;-80
2022/12/21 07:13:29;;;;;;;18.40;8.50;;;10.30;99.90;;;;;;5054928;28;20214;-80
2022/12/21 07:15:56;;;;;;;21.90;8.98;;;10.40;99.90;;;;;;5054760;28;20234;-80
2022/12/21 07:18:23;;;;;;;20.17;9.10;;;10.40;99.90;;;;;;5052955;28;20511;-82
2022/12/21 07:20:54;;;;;;;22.00;8.65;;;10.20;99.90;;;;;;5052746;28;20182;-80
2022/12/21 07:23:20;;;;;;;15.50;8.55;;;10.30;99.90;;;;;;5054813;28;20672;-82
2022/12/21 07:25:45;;;;;;;18.88;8.60;;;10.30;99.90;;;;;;5053751;28;20190;-82
2022/12/21 07:28:11;;;;;;;15.77;8.70;;;10.20;99.90;;;;;;5053567;28;20531;-82
2022/12/21 07:30:36;;;;;;;20.33;9.20;;;10.20;99.90;;;;;;5054267;28;20302;-82
2022/12/21 07:33:02;;;;;;;18.58;9.48;;;10.20;99.90;;;;;;5054490;28;20187;-80
2022/12/21 07:35:28;;;;;;;15.30;9.43;;;10.30;99.90;;;;;;5054119;28;20210;-81
2022/12/21 07:37:53;;;;;;;14.05;8.70;;;10.40;99.90;;;;;;5054224;28;20165;-81
2022/12/21 07:40:20;;;;;;;19.00;9.95;;;10.50;99.90;;;;;;5053787;28;20186;-81
2022/12/21 07:42:46;;;;;;;17.70;9.02;;;10.50;99.90;;;;;;5052562;28;20974;-80
2022/12/21 07:45:12;;;;;;;20.58;9.52;;;10.40;99.90;;;;;;5052689;28;20257;-80
2022/12/21 07:47:38;;;;;;;15.98;9.10;;;10.50;99.90;;;;;;5053585;28;20220;-81
2022/12/21 07:50:05;;;;;;;12.82;8.65;;;10.50;99.90;;;;;;5052424;28;20179;-82
2022/12/21 07:52:31;;;;;;;15.48;9.10;;;10.30;99.90;;;;;;5052246;28;20180;-83
2022/12/21 07:54:56;;;;;;;26.95;9.82;;;10.20;99.90;;;;;;5053926;28;20175;-81
2022/12/21 07:57:22;;;;;;;18.92;10.00;;;10.40;99.90;;;;;;5052725;28;20261;-82
2022/12/21 07:59:48;;;;;;;15.10;9.95;;;10.20;99.90;;;;;;5052695;28;20545;-82
2022/12/21 08:02:14;;;;;;;25.75;11.13;;;10.20;99.90;;;;;;5053997;28;20230;-82
2022/12/21 08:04:39;;;;;;;24.80;11.02;;;10.20;99.90;;;;;;5052206;28;20321;-82
2022/12/21 08:07:05;;;;;;;25.35;12.00;;;10.20;99.90;;;;;;5053959;28;20714;-85
2022/12/21 08:09:32;;;;;;;24.55;11.57;;;10.20;99.90;;;;;;5053259;28;20167;-80
2022/12/21 08:11:58;;;;;;;22.90;11.80;;;10.20;99.90;;;;;;5053683;28;20183;-80
2022/12/21 08:14:23;;;;;;;28.45;12.43;;;10.40;99.90;;;;;;5054084;28;20179;-81
2022/12/21 08:16:49;;;;;;;41.25;14.02;;;10.50;99.90;;;;;;5053894;28;20206;-80
2022/12/21 08:19:15;;;;;;;25.50;12.40;;;10.30;99.90;;;;;;5052314;28;20362;-81
2022/12/21 08:21:40;;;;;;;33.55;13.93;;;10.30;99.90;;;;;;5052436;28;20191;-83
2022/12/21 08:24:06;;;;;;;28.08;13.40;;;10.50;99.90;;;;;;5052471;28;20174;-81
2022/12/21 08:26:32;;;;;;;33.33;14.95;;;10.40;99.90;;;;;;5053668;28;20308;-81
2022/12/21 08:28:59;;;;;;;28.13;12.95;;;10.30;99.90;;;;;;5053345;28;20175;-81
2022/12/21 08:31:24;;;;;;;19.88;11.48;;;10.40;99.90;;;;;;5053220;28;20568;-83
2022/12/21 08:33:50;;;;;;;30.63;11.40;;;10.10;99.90;;;;;;5054087;28;20170;-83
2022/12/21 08:36:20;;;;;;;26.88;10.88;;;10.20;99.90;;;;;;5051139;28;20261;-80
2022/12/21 08:38:46;;;;;;;31.75;12.10;;;10.20;99.90;;;;;;5050726;28;20220;-86
2022/12/21 08:41:12;;;;;;;25.00;10.50;;;10.30;99.90;;;;;;5052484;28;20175;-82
2022/12/21 08:43:38;;;;;;;21.30;10.90;;;10.40;99.90;;;;;;5053592;28;20178;-84
2022/12/21 08:46:09;;;;;;;24.08;10.82;;;10.40;99.90;;;;;;5053207;28;20678;-82
2022/12/21 08:48:35;;;;;;;18.45;10.32;;;10.50;99.90;;;;;;5053029;28;20178;-82
2022/12/21 08:51:01;;;;;;;19.73;10.38;;;10.60;99.90;;;;;;5051816;28;20176;-82
2022/12/21 08:53:27;;;;;;;20.77;9.10;;;10.60;99.90;;;;;;5052984;28;20261;-82
2022/12/21 08:55:53;;;;;;;13.40;8.50;;;10.80;99.90;;;;;;5052066;28;20223;-81
2022/12/21 08:58:19;;;;;;;19.23;10.48;;;10.70;99.90;;;;;;5051888;28;20171;-82
2022/12/21 09:00:45;;;;;;;23.48;11.10;;;10.90;99.90;;;;;;5052107;28;20201;-82
2022/12/21 09:03:11;;;;;;;18.13;9.60;;;10.80;99.90;;;;;;5053163;28;20194;-83
2022/12/21 09:05:38;;;;;;;17.88;9.07;;;11.00;99.90;;;;;;5051972;28;20171;-82
2022/12/21 09:08:04;;;;;;;17.40;9.20;;;10.70;99.90;;;;;;5052006;28;20174;-82
2022/12/21 09:10:32;;;;;;;18.23;8.82;;;10.60;99.90;;;;;;5052358;28;20159;-81
2022/12/21 09:12:58;;;;;;;14.25;7.35;;;10.70;99.90;;;;;;5051968;28;20202;-79
2022/12/21 09:15:23;;;;;;;13.85;8.00;;;10.70;99.90;;;;;;5053159;28;20187;-81
2022/12/21 09:17:49;;;;;;;23.42;8.35;;;10.60;99.90;;;;;;5052677;28;20229;-79
2022/12/21 09:20:15;;;;;;;17.55;8.07;;;10.70;99.90;;;;;;5052782;28;20198;-80
2022/12/21 09:22:41;;;;;;;15.52;8.93;;;10.50;99.90;;;;;;5053019;28;20198;-80
2022/12/21 09:25:07;;;;;;;13.25;8.18;;;10.60;99.90;;;;;;5053553;28;20524;-82
2022/12/21 09:27:33;;;;;;;16.00;9.48;;;10.50;99.90;;;;;;5052157;28;20723;-82
2022/12/21 09:29:59;;;;;;;17.70;7.82;;;10.30;99.90;;;;;;5052978;28;20190;-79
2022/12/21 09:32:24;;;;;;;20.50;9.52;;;10.40;99.90;;;;;;5054932;28;20282;-80
2022/12/21 09:34:50;;;;;;;11.85;8.95;;;10.60;99.90;;;;;;5057406;28;20510;-79
2022/12/21 09:37:16;;;;;;;19.58;10.00;;;10.80;99.90;;;;;;5056614;28;20221;-85
2022/12/21 09:39:42;;;;;;;19.50;9.00;;;10.80;99.90;;;;;;5053073;28;20529;-80
2022/12/21 09:42:28;;;;;;;15.50;9.85;;;10.80;99.90;;;;;;5052751;28;20214;-87
2022/12/21 09:45:30;;;;;;;20.83;10.10;;;10.90;99.90;;;;;;5053329;28;20642;-79
2022/12/21 09:48:06;;;;;;;15.70;8.48;;;10.90;99.90;;;;;;5052324;28;20196;-84
2022/12/21 09:50:57;;;;;;;13.20;9.57;;;11.00;99.90;;;;;;5053037;28;20228;-82
2022/12/21 09:53:32;;;;;;;12.43;9.02;;;10.70;99.90;;;;;;5043316;28;20212;-81
2022/12/21 09:55:59;;;;;;;19.88;9.05;;;10.90;99.90;;;;;;5052806;28;20206;-82
2022/12/21 09:58:40;;;;;;;16.85;8.45;;;10.90;99.90;;;;;;5052265;28;20246;-79
2022/12/21 10:01:45;;;;;;;12.30;8.50;;;10.90;99.90;;;;;;5052044;28;20167;-81
2022/12/21 10:04:10;;;;;;;15.73;9.13;;;10.90;99.90;;;;;;5002484;28;20182;-80
2022/12/21 10:06:57;;;;;;;16.35;7.55;;;10.90;99.90;;;;;;5051823;28;20216;-81
2022/12/21 10:09:33;;;;;;;9.40;7.45;;;11.00;99.90;;;;;;5052087;28;20634;-79
2022/12/21 10:12:06;;;;;;;18.50;7.40;;;11.00;99.90;;;;;;5051648;28;20717;-80
2022/12/21 10:15:04;;;;;;;10.98;6.53;;;11.00;99.90;;;;;;5052075;28;20159;-80
2022/12/21 10:17:41;;;;;;;9.48;6.25;;;11.00;99.90;;;;;;5052376;28;20536;-79
2022/12/21 10:20:30;;;;;;;12.57;6.90;;;11.00;99.90;;;;;;5052261;28;20182;-80
2022/12/21 10:23:00;;;;;;;9.90;6.95;;;10.90;99.90;;;;;;5050497;28;20595;-80
2022/12/21 10:25:40;;;;;;;8.35;6.15;;;10.70;99.90;;;;;;5051236;28;20171;-80
2022/12/21 10:28:11;;;;;;;13.85;7.05;;;10.50;99.90;;;;;;5052165;28;20163;-79
2022/12/21 10:30:40;;;;;;;12.95;7.13;;;10.50;99.90;;;;;;5051653;28;20635;-79
2022/12/21 10:33:11;;;;;;;12.50;6.72;;;10.50;99.90;;;;;;5051641;28;20179;-80
2022/12/21 10:35:38;;;;;;;7.38;6.03;;;10.50;99.90;;;;;;5051395;28;20217;-79
2022/12/21 10:38:14;;;;;;;8.20;5.75;;;10.40;99.90;;;;;;5051493;28;20237;-78
2022/12/21 10:40:42;;;;;;;11.05;6.90;;;10.50;99.90;;;;;;5051921;28;20194;-80
2022/12/21 10:43:10;;;;;;;11.88;6.88;;;10.50;99.90;;;;;;5051649;28;20183;-79
2022/12/21 10:45:36;;;;;;;14.38;7.07;;;10.70;99.90;;;;;;5050216;28;20168;-79
2022/12/21 10:48:02;;;;;;;9.88;7.63;;;10.70;99.90;;;;;;5052174;28;20183;-79
2022/12/21 10:50:32;;;;;;;12.32;7.78;;;10.70;99.90;;;;;;5051533;28;20167;-80
2022/12/21 10:53:00;;;;;;;10.02;7.07;;;10.70;99.90;;;;;;5051300;28;20666;-81
2022/12/21 10:55:34;;;;;;;13.73;7.85;;;10.90;99.90;;;;;;5055011;28;20198;-82
2022/12/21 10:58:22;;;;;;;10.23;6.55;;;10.60;99.90;;;;;;5054398;28;20186;-79
2022/12/21 11:00:56;;;;;;;9.48;7.30;;;10.70;99.90;;;;;;5054957;28;20241;-82
2022/12/21 11:03:27;;;;;;;12.90;6.22;;;10.90;99.90;;;;;;5054420;28;20183;-81
2022/12/21 11:05:53;;;;;;;15.23;7.53;;;11.00;99.90;;;;;;5054320;28;20175;-82
2022/12/21 11:08:30;;;;;;;12.20;7.70;;;11.10;99.90;;;;;;5053942;28;20171;-81
2022/12/21 11:11:02;;;;;;;17.83;6.15;;;11.10;99.90;;;;;;5055371;28;20218;-79
2022/12/21 11:13:32;;;;;;;15.77;7.55;;;10.90;99.90;;;;;;5053800;28;20210;-81
2022/12/21 11:16:09;;;;;;;8.68;6.78;;;10.90;99.90;;;;;;5055273;28;20408;-81
2022/12/21 11:18:49;;;;;;;11.70;6.20;;;10.80;99.90;;;;;;5054351;28;20167;-82
2022/12/21 11:21:33;;;;;;;11.07;6.40;;;11.00;99.90;;;;;;5055386;28;20171;-84
2022/12/21 11:24:10;;;;;;;13.00;6.43;;;11.10;99.90;;;;;;5053864;28;20207;-82
2022/12/21 11:27:00;;;;;;;9.60;5.88;;;11.10;99.90;;;;;;5054014;28;20183;-84
2022/12/21 11:29:36;;;;;;;12.90;6.13;;;11.10;99.90;;;;;;5054316;28;20262;-81
2022/12/21 11:32:05;;;;;;;6.70;6.07;;;11.30;99.90;;;;;;5055060;28;20214;-81
2022/12/21 11:35:03;;;;;;;8.63;6.30;;;11.30;99.90;;;;;;5053490;28;20185;-82
2022/12/21 11:37:37;;;;;;;7.65;5.95;;;11.20;99.90;;;;;;5054853;28;20198;-82
2022/12/21 11:40:20;;;;;;;7.75;6.82;;;11.30;99.90;;;;;;5054664;28;20174;-84
2022/12/21 11:42:58;;;;;;;13.43;6.07;;;11.50;99.90;;;;;;5053322;28;20584;-83
2022/12/21 11:45:38;;;;;;;13.32;5.60;;;11.50;99.90;;;;;;5054600;28;20171;-81
2022/12/21 11:48:43;;;;;;;11.32;6.78;;;11.40;99.90;;;;;;5053383;28;20201;-82
2022/12/21 11:51:51;;;;;;;9.73;6.60;;;11.60;99.90;;;;;;5052913;28;20174;-82
2022/12/21 11:54:33;;;;;;;16.42;7.40;;;11.40;99.90;;;;;;5038151;28;20309;-82
2022/12/21 11:57:29;;;;;;;9.57;6.65;;;11.30;99.90;;;;;;5054340;28;20203;-82
2022/12/21 12:00:02;;;;;;;12.20;5.85;;;11.20;99.90;;;;;;5054398;28;20171;-81
2022/12/21 12:02:36;;;;;;;8.85;4.65;;;11.30;99.90;;;;;;5054252;28;20190;-80
2022/12/21 12:05:21;;;;;;;10.13;5.45;;;11.30;99.90;;;;;;5053985;28;20177;-82
2022/12/21 12:08:10;;;;;;;10.48;5.00;;;11.10;99.90;;;;;;5054030;28;20254;-81
2022/12/21 12:10:46;;;;;;;10.90;5.45;;;10.90;99.90;;;;;;5053176;28;20240;-82
2022/12/21 12:13:36;;;;;;;7.72;4.75;;;11.00;99.90;;;;;;5053912;28;20187;-81
2022/12/21 12:16:29;;;;;;;6.40;5.70;;;11.30;99.90;;;;;;5054097;28;20223;-82
2022/12/21 12:19:38;;;;;;;5.95;5.35;;;11.30;99.90;;;;;;5054189;28;20237;-82
2022/12/21 12:22:37;;;;;;;8.40;6.30;;;11.30;99.90;;;;;;5053839;28;20279;-81
2022/12/21 12:25:12;;;;;;;11.07;5.75;;;11.20;99.90;;;;;;5052993;28;20199;-81
2022/12/21 12:27:50;;;;;;;9.85;5.32;;;11.20;99.90;;;;;;5053848;28;20634;-84
2022/12/21 12:30:30;;;;;;;7.25;4.80;;;11.20;99.90;;;;;;5053927;28;20254;-82
2022/12/21 12:33:11;;;;;;;8.65;5.80;;;11.20;99.90;;;;;;5054190;28;20191;-82
2022/12/21 12:35:43;;;;;;;6.68;5.25;;;11.10;99.90;;;;;;5053602;28;20205;-84
2022/12/21 12:38:31;;;;;;;9.80;5.90;;;11.00;99.90;;;;;;5053873;28;20166;-81
2022/12/21 12:41:22;;;;;;;13.02;4.97;;;11.10;99.90;;;;;;5051777;28;20530;-83
2022/12/21 12:43:51;;;;;;;6.90;4.75;;;11.10;99.90;;;;;;5052187;28;20206;-79
2022/12/21 12:46:35;;;;;;;11.98;6.00;;;11.20;99.90;;;;;;5053087;28;20163;-80
2022/12/21 12:49:28;;;;;;;9.48;5.03;;;11.00;99.90;;;;;;5053163;28;20167;-79
2022/12/21 12:52:19;;;;;;;7.57;5.13;;;11.10;99.90;;;;;;5053220;28;20670;-82
2022/12/21 12:55:25;;;;;;;8.25;4.25;;;11.00;99.90;;;;;;5053054;28;20221;-80
2022/12/21 12:58:00;;;;;;;11.30;4.95;;;10.70;99.90;;;;;;5053443;28;20186;-82
2022/12/21 13:00:29;;;;;;;9.38;4.05;;;10.70;99.90;;;;;;5053558;28;20169;-83
2022/12/21 13:03:10;;;;;;;10.82;4.53;;;10.80;99.90;;;;;;5053701;28;20241;-83
2022/12/21 13:06:07;;;;;;;9.35;4.88;;;10.90;99.90;;;;;;5053503;28;20694;-80
2022/12/21 13:08:57;;;;;;;6.95;4.38;;;10.70;99.90;;;;;;5052044;28;20530;-81
2022/12/21 13:11:39;;;;;;;4.60;4.15;;;10.80;99.90;;;;;;5053138;28;20224;-80
2022/12/21 13:14:23;;;;;;;6.05;3.28;;;10.90;99.90;;;;;;5052942;28;20213;-80
2022/12/21 13:17:08;;;;;;;6.82;4.20;;;10.90;99.90;;;;;;5050881;28;20210;-81
2022/12/21 13:19:35;;;;;;;9.73;4.40;;;11.00;99.90;;;;;;5053101;28;20237;-81
2022/12/21 13:22:05;;;;;;;7.10;3.35;;;11.10;99.90;;;;;;5052755;28;20210;-79
2022/12/21 13:24:46;;;;;;;6.93;3.25;;;11.10;99.90;;;;;;5051225;28;20170;-80
2022/12/21 13:27:22;;;;;;;8.13;3.38;;;11.10;99.90;;;;;;5051388;28;20254;-79
2022/12/21 13:29:53;;;;;;;6.15;2.83;;;11.00;99.90;;;;;;5051529;28;20626;-79
2022/12/21 13:32:24;;;;;;;5.30;2.90;;;11.10;99.90;;;;;;5052343;28;20194;-80
2022/12/21 13:35:13;;;;;;;5.00;2.55;;;11.10;99.90;;;;;;5052405;28;20163;-80
2022/12/21 13:37:41;;;;;;;3.53;2.83;;;11.10;99.90;;;;;;5052277;28;20179;-82
2022/12/21 13:40:13;;;;;;;11.70;2.88;;;11.10;99.90;;;;;;5052660;28;20242;-82
2022/12/21 13:42:52;;;;;;;7.30;3.15;;;11.00;99.90;;;;;;5052395;28;20187;-80
2022/12/21 13:45:43;;;;;;;7.85;2.75;;;11.10;99.90;;;;;;5053065;28;20171;-80
2022/12/21 13:48:17;;;;;;;8.45;3.95;;;11.00;99.90;;;;;;5056915;28;20204;-80
2022/12/21 13:51:08;;;;;;;10.77;3.65;;;11.20;99.90;;;;;;5063615;28;20205;-81
2022/12/21 13:53:34;;;;;;;4.65;2.72;;;11.50;99.90;;;;;;5065243;28;20223;-80
2022/12/21 13:56:08;;;;;;;6.35;2.80;;;11.50;99.90;;;;;;5061577;28;20211;-80
2022/12/21 13:58:51;;;;;;;9.30;2.72;;;11.40;99.90;;;;;;5063667;28;20210;-83
2022/12/21 14:01:36;;;;;;;3.80;2.85;;;11.40;99.90;;;;;;5060020;28;20181;-80
2022/12/21 14:04:46;;;;;;;11.57;2.90;;;11.50;99.90;;;;;;5056314;28;20194;-79
2022/12/21 14:07:20;;;;;;;3.63;3.33;;;11.70;99.90;;;;;;5056642;28;20171;-84
2022/12/21 14:10:08;;;;;;;6.50;3.63;;;11.60;99.90;;;;;;5055806;28;20167;-83
2022/12/21 14:12:59;;;;;;;3.15;2.85;;;11.50;99.90;;;;;;5060020;28;20187;-82
2022/12/21 14:15:42;;;;;;;4.85;2.65;;;11.30;99.90;;;;;;5060627;28;20175;-81
2022/12/21 14:18:17;;;;;;;3.65;3.10;;;11.40;99.90;;;;;;5058416;28;20171;-84
2022/12/21 14:20:49;;;;;;;5.72;3.03;;;11.40;99.90;;;;;;5060913;28;20166;-82
2022/12/21 14:23:29;;;;;;;11.00;3.03;;;11.40;99.90;;;;;;5058053;28;20207;-81